HZA15 OERK-OERS
Flight info
| Callsign | HZA15 |
|---|---|
| Flight time | 1h 44m |
| Altitude | 36000 |
| Route | IVONU M321 HLF L604 NADIK Q832 KULKI |
| Aircraft | A320/M-SDE3FGHIRWY/LB1 |
Departure
| Time | 2026-05-04 05:45 |
|---|---|
| Airport | King Khalid International Airport (OERK) |
Arrival
| Time | 2026-05-04 07:29 |
|---|---|
| Airport | Red Sea International Airport (OERS) |
| Time | Latitude | Longitude | Altitude | Speed | Heading |
|---|---|---|---|---|---|
| 2026-05-04 05:04 | 24.96323 | 46.72211 | 2031 ft | 0 kts | 240° |
| 2026-05-04 05:35 | 24.96324 | 46.72213 | 2031 ft | 1 kts | 240° |
| 2026-05-04 05:35 | 24.96333 | 46.72230 | 2037 ft | 3 kts | 238° |
| 2026-05-04 05:35 | 24.96343 | 46.72247 | 2041 ft | 2 kts | 240° |
| 2026-05-04 05:36 | 24.96353 | 46.72263 | 2039 ft | 3 kts | 210° |
| 2026-05-04 05:36 | 24.96367 | 46.72267 | 2036 ft | 3 kts | 152° |
| 2026-05-04 05:36 | 24.96383 | 46.72254 | 2034 ft | 3 kts | 139° |
| 2026-05-04 05:36 | 24.96395 | 46.72243 | 2033 ft | 1 kts | 147° |
| 2026-05-04 05:37 | 24.96397 | 46.72242 | 2039 ft | 0 kts | 147° |
| 2026-05-04 05:39 | 24.96394 | 46.72243 | 2038 ft | 2 kts | 147° |
| 2026-05-04 05:39 | 24.96290 | 46.72310 | 2033 ft | 13 kts | 150° |
| 2026-05-04 05:39 | 24.96222 | 46.72353 | 2033 ft | 13 kts | 150° |
| 2026-05-04 05:40 | 24.96046 | 46.72429 | 2035 ft | 14 kts | 219° |
| 2026-05-04 05:40 | 24.95986 | 46.72325 | 2032 ft | 18 kts | 240° |
| 2026-05-04 05:40 | 24.95921 | 46.72199 | 2034 ft | 18 kts | 239° |
| 2026-05-04 05:41 | 24.95849 | 46.72151 | 2037 ft | 14 kts | 162° |
| 2026-05-04 05:41 | 24.95756 | 46.72209 | 2035 ft | 17 kts | 150° |
| 2026-05-04 05:41 | 24.95647 | 46.72279 | 2032 ft | 20 kts | 150° |
| 2026-05-04 05:41 | 24.95521 | 46.72358 | 2039 ft | 22 kts | 150° |
| 2026-05-04 05:42 | 24.95381 | 46.72446 | 2036 ft | 24 kts | 150° |
| 2026-05-04 05:42 | 24.95273 | 46.72509 | 2036 ft | 12 kts | 169° |
| 2026-05-04 05:42 | 24.95213 | 46.72441 | 2039 ft | 15 kts | 240° |
| 2026-05-04 05:42 | 24.95157 | 46.72335 | 2035 ft | 18 kts | 240° |
| 2026-05-04 05:43 | 24.95091 | 46.72207 | 2034 ft | 21 kts | 240° |
| 2026-05-04 05:43 | 24.95016 | 46.72064 | 2032 ft | 21 kts | 239° |
| 2026-05-04 05:43 | 24.94966 | 46.71969 | 2039 ft | 12 kts | 240° |
| 2026-05-04 05:45 | 24.99796 | 46.69012 | 3370 ft | 198 kts | 339° |
| 2026-05-04 05:45 | 25.01178 | 46.68492 | 3500 ft | 219 kts | 343° |
| 2026-05-04 05:47 | 25.09059 | 46.60120 | 7536 ft | 279 kts | 259° |
| 2026-05-04 05:47 | 25.08576 | 46.58034 | 8290 ft | 282 kts | 256° |
| 2026-05-04 05:47 | 25.08055 | 46.55945 | 9047 ft | 283 kts | 257° |
| 2026-05-04 05:48 | 25.07730 | 46.53805 | 9808 ft | 284 kts | 266° |
| 2026-05-04 05:48 | 25.07585 | 46.51611 | 10341 ft | 295 kts | 268° |
| 2026-05-04 05:48 | 25.07502 | 46.49269 | 10517 ft | 317 kts | 269° |
| 2026-05-04 05:48 | 25.07453 | 46.46751 | 10708 ft | 337 kts | 270° |
| 2026-05-04 05:49 | 25.07416 | 46.44164 | 11196 ft | 345 kts | 270° |
| 2026-05-04 05:49 | 25.07377 | 46.41501 | 11806 ft | 350 kts | 270° |
| 2026-05-04 05:49 | 25.07331 | 46.38794 | 12434 ft | 355 kts | 269° |
| 2026-05-04 05:49 | 25.07278 | 46.36055 | 13052 ft | 359 kts | 269° |
| 2026-05-04 05:51 | 25.06838 | 46.16236 | 17535 ft | 374 kts | 268° |
| 2026-05-04 05:51 | 25.06770 | 46.13365 | 18200 ft | 376 kts | 268° |
| 2026-05-04 05:52 | 25.06702 | 46.10479 | 18770 ft | 377 kts | 268° |
| 2026-05-04 05:52 | 25.06635 | 46.07578 | 19300 ft | 380 kts | 268° |
| 2026-05-04 05:52 | 25.06567 | 46.04659 | 19844 ft | 382 kts | 267° |
| 2026-05-04 05:52 | 25.06498 | 46.01717 | 20379 ft | 385 kts | 267° |
| 2026-05-04 05:53 | 25.06429 | 45.98762 | 20907 ft | 387 kts | 267° |
| 2026-05-04 05:54 | 25.05900 | 45.77474 | 24145 ft | 405 kts | 266° |
| 2026-05-04 05:55 | 25.05818 | 45.74371 | 24545 ft | 406 kts | 266° |
| 2026-05-04 05:55 | 25.05738 | 45.71300 | 24933 ft | 407 kts | 266° |
| 2026-05-04 05:55 | 25.05693 | 45.68181 | 25328 ft | 408 kts | 270° |
| 2026-05-04 05:55 | 25.06043 | 45.65068 | 25734 ft | 411 kts | 278° |
| 2026-05-04 05:56 | 25.06579 | 45.61961 | 26128 ft | 412 kts | 278° |
| 2026-05-04 05:56 | 25.07112 | 45.58857 | 26504 ft | 412 kts | 278° |
| 2026-05-04 05:56 | 25.07645 | 45.55746 | 26861 ft | 414 kts | 278° |
| 2026-05-04 05:56 | 25.08179 | 45.52615 | 27215 ft | 415 kts | 278° |
| 2026-05-04 05:57 | 25.08708 | 45.49486 | 27564 ft | 416 kts | 278° |
| 2026-05-04 05:57 | 25.09239 | 45.46346 | 27887 ft | 417 kts | 277° |
| 2026-05-04 05:57 | 25.09771 | 45.43198 | 28214 ft | 418 kts | 277° |
| 2026-05-04 05:57 | 25.10303 | 45.40041 | 28531 ft | 419 kts | 277° |
| 2026-05-04 05:58 | 25.10840 | 45.36866 | 28827 ft | 420 kts | 277° |
| 2026-05-04 05:58 | 25.11366 | 45.33734 | 29105 ft | 421 kts | 277° |
| 2026-05-04 05:58 | 25.11899 | 45.30553 | 29381 ft | 422 kts | 277° |
| 2026-05-04 05:58 | 25.12437 | 45.27358 | 29674 ft | 423 kts | 277° |
| 2026-05-04 05:59 | 25.12974 | 45.24167 | 29951 ft | 424 kts | 277° |
| 2026-05-04 05:59 | 25.13513 | 45.20968 | 30253 ft | 423 kts | 277° |
| 2026-05-04 05:59 | 25.14049 | 45.17786 | 30549 ft | 421 kts | 277° |
| 2026-05-04 05:59 | 25.14585 | 45.14614 | 30836 ft | 420 kts | 277° |
| 2026-05-04 06:00 | 25.15120 | 45.11443 | 31123 ft | 419 kts | 277° |
| 2026-05-04 06:00 | 25.15648 | 45.08283 | 31410 ft | 418 kts | 277° |
| 2026-05-04 06:00 | 25.16173 | 45.05130 | 31696 ft | 418 kts | 277° |
| 2026-05-04 06:00 | 25.16696 | 45.01977 | 31980 ft | 417 kts | 277° |
| 2026-05-04 06:01 | 25.17217 | 44.98834 | 32269 ft | 416 kts | 277° |
| 2026-05-04 06:01 | 25.17736 | 44.95690 | 32551 ft | 416 kts | 277° |
| 2026-05-04 06:03 | 25.21336 | 44.73869 | 34541 ft | 410 kts | 276° |
| 2026-05-04 06:03 | 25.21834 | 44.70801 | 34792 ft | 410 kts | 276° |
| 2026-05-04 06:05 | 25.25347 | 44.49247 | 36017 ft | 406 kts | 276° |
| 2026-05-04 06:05 | 25.26468 | 44.43120 | 36016 ft | 407 kts | 277° |
| 2026-05-04 06:06 | 25.27673 | 44.37015 | 36012 ft | 406 kts | 278° |
| 2026-05-04 06:06 | 25.28865 | 44.30920 | 36017 ft | 406 kts | 277° |
| 2026-05-04 06:07 | 25.30030 | 44.24815 | 36019 ft | 406 kts | 277° |
| 2026-05-04 06:07 | 25.31170 | 44.18747 | 36032 ft | 405 kts | 277° |
| 2026-05-04 06:08 | 25.32311 | 44.12644 | 36029 ft | 405 kts | 277° |
| 2026-05-04 06:08 | 25.33455 | 44.06545 | 36033 ft | 405 kts | 277° |
| 2026-05-04 06:09 | 25.34601 | 44.00445 | 36043 ft | 405 kts | 277° |
| 2026-05-04 06:11 | 25.39140 | 43.76107 | 36039 ft | 403 kts | 277° |
| 2026-05-04 06:13 | 25.43618 | 43.51833 | 36033 ft | 402 kts | 276° |
| 2026-05-04 06:14 | 25.47499 | 43.30621 | 36023 ft | 401 kts | 276° |
| 2026-05-04 06:15 | 25.48600 | 43.24565 | 36022 ft | 401 kts | 276° |
| 2026-05-04 06:15 | 25.49693 | 43.18515 | 36023 ft | 401 kts | 276° |
| 2026-05-04 06:16 | 25.50790 | 43.12455 | 36020 ft | 401 kts | 276° |
| 2026-05-04 06:16 | 25.51885 | 43.06412 | 36017 ft | 401 kts | 276° |
| 2026-05-04 06:17 | 25.52975 | 43.00358 | 36010 ft | 401 kts | 276° |
| 2026-05-04 06:17 | 25.54061 | 42.94297 | 36007 ft | 401 kts | 276° |
| 2026-05-04 06:18 | 25.55153 | 42.88236 | 36008 ft | 401 kts | 276° |
| 2026-05-04 06:20 | 25.59484 | 42.63986 | 36012 ft | 402 kts | 276° |
| 2026-05-04 06:21 | 25.61999 | 42.49791 | 36025 ft | 401 kts | 276° |
| 2026-05-04 06:22 | 25.63067 | 42.43729 | 36014 ft | 401 kts | 276° |
| 2026-05-04 06:25 | 25.72661 | 42.01758 | 36029 ft | 402 kts | 280° |
| 2026-05-04 06:26 | 25.74247 | 41.95813 | 36049 ft | 402 kts | 280° |
| 2026-05-04 06:26 | 25.75840 | 41.89871 | 36048 ft | 401 kts | 280° |
| 2026-05-04 06:27 | 25.79791 | 41.75054 | 36065 ft | 400 kts | 280° |
| 2026-05-04 06:28 | 25.81375 | 41.69151 | 36050 ft | 399 kts | 280° |
| 2026-05-04 06:28 | 25.82942 | 41.63256 | 36052 ft | 398 kts | 279° |
| 2026-05-04 06:29 | 25.84502 | 41.57360 | 36054 ft | 398 kts | 279° |
| 2026-05-04 06:29 | 25.86056 | 41.51474 | 36072 ft | 397 kts | 279° |
| 2026-05-04 06:30 | 25.87616 | 41.45600 | 36059 ft | 396 kts | 279° |
| 2026-05-04 06:30 | 25.89162 | 41.39733 | 36066 ft | 396 kts | 279° |
| 2026-05-04 06:31 | 25.90700 | 41.33870 | 36081 ft | 395 kts | 279° |
| 2026-05-04 06:31 | 25.92238 | 41.28016 | 36070 ft | 395 kts | 279° |
| 2026-05-04 06:33 | 25.98361 | 41.04648 | 36069 ft | 394 kts | 279° |
| 2026-05-04 06:34 | 25.99882 | 40.98794 | 36073 ft | 394 kts | 279° |
| 2026-05-04 06:34 | 26.01402 | 40.92946 | 36070 ft | 394 kts | 279° |
| 2026-05-04 06:36 | 26.07442 | 40.69617 | 36079 ft | 391 kts | 279° |
| 2026-05-04 06:37 | 26.08941 | 40.63798 | 36079 ft | 391 kts | 279° |
| 2026-05-04 06:37 | 26.10442 | 40.57981 | 36075 ft | 391 kts | 279° |
| 2026-05-04 06:38 | 26.11941 | 40.52163 | 36070 ft | 391 kts | 279° |
| 2026-05-04 06:40 | 26.17870 | 40.28933 | 36075 ft | 390 kts | 279° |
| 2026-05-04 06:40 | 26.19346 | 40.23135 | 36107 ft | 389 kts | 279° |
| 2026-05-04 06:41 | 26.20815 | 40.17343 | 36097 ft | 388 kts | 279° |
| 2026-05-04 06:41 | 26.22274 | 40.11568 | 36085 ft | 387 kts | 279° |
| 2026-05-04 06:42 | 26.23731 | 40.05802 | 36080 ft | 386 kts | 279° |
| 2026-05-04 06:44 | 26.29510 | 39.82869 | 36081 ft | 383 kts | 279° |
| 2026-05-04 06:44 | 26.30930 | 39.77195 | 36077 ft | 383 kts | 278° |
| 2026-05-04 06:45 | 26.32363 | 39.71481 | 36073 ft | 382 kts | 278° |
| 2026-05-04 06:45 | 26.33794 | 39.65768 | 36067 ft | 382 kts | 278° |
| 2026-05-04 06:46 | 26.35215 | 39.60064 | 36059 ft | 382 kts | 278° |
| 2026-05-04 06:46 | 26.36632 | 39.54354 | 36060 ft | 382 kts | 278° |
| 2026-05-04 06:48 | 26.42288 | 39.31505 | 36057 ft | 383 kts | 278° |
| 2026-05-04 06:50 | 26.41907 | 39.08595 | 36053 ft | 370 kts | 261° |
| 2026-05-04 06:51 | 26.41434 | 39.02871 | 36027 ft | 370 kts | 261° |
| 2026-05-04 06:51 | 26.40956 | 38.97150 | 36031 ft | 371 kts | 261° |
| 2026-05-04 06:52 | 26.40471 | 38.91420 | 36035 ft | 371 kts | 261° |
| 2026-05-04 06:52 | 26.39993 | 38.85686 | 36047 ft | 371 kts | 261° |
| 2026-05-04 06:53 | 26.39508 | 38.79957 | 36047 ft | 371 kts | 261° |
| 2026-05-04 06:53 | 26.39015 | 38.74259 | 36041 ft | 371 kts | 261° |
| 2026-05-04 06:54 | 26.38521 | 38.68528 | 36043 ft | 371 kts | 261° |
| 2026-05-04 06:54 | 26.38031 | 38.62798 | 36064 ft | 371 kts | 261° |
| 2026-05-04 06:55 | 26.37533 | 38.57069 | 36057 ft | 371 kts | 261° |
| 2026-05-04 06:55 | 26.37033 | 38.51341 | 36054 ft | 371 kts | 261° |
| 2026-05-04 06:57 | 26.35021 | 38.28432 | 36012 ft | 371 kts | 261° |
| 2026-05-04 06:58 | 26.34508 | 38.22687 | 35577 ft | 373 kts | 261° |
| 2026-05-04 06:58 | 26.34252 | 38.19813 | 35154 ft | 373 kts | 261° |
| 2026-05-04 06:58 | 26.33998 | 38.16972 | 34758 ft | 373 kts | 261° |
| 2026-05-04 06:59 | 26.33737 | 38.14065 | 34339 ft | 370 kts | 261° |
| 2026-05-04 06:59 | 26.33485 | 38.11229 | 33916 ft | 366 kts | 261° |
| 2026-05-04 06:59 | 26.33238 | 38.08458 | 33446 ft | 362 kts | 261° |
| 2026-05-04 06:59 | 26.32986 | 38.05674 | 32981 ft | 364 kts | 261° |
| 2026-05-04 07:01 | 26.31096 | 37.85016 | 29887 ft | 386 kts | 262° |
| 2026-05-04 07:01 | 26.30824 | 37.82044 | 29394 ft | 384 kts | 262° |
| 2026-05-04 07:02 | 26.30318 | 37.79162 | 28909 ft | 375 kts | 250° |
| 2026-05-04 07:02 | 26.29151 | 37.76599 | 28441 ft | 371 kts | 237° |
| 2026-05-04 07:02 | 26.27412 | 37.74465 | 27969 ft | 370 kts | 228° |
| 2026-05-04 07:02 | 26.25565 | 37.72501 | 27514 ft | 365 kts | 228° |
| 2026-05-04 07:03 | 26.23739 | 37.70564 | 27088 ft | 360 kts | 228° |
| 2026-05-04 07:03 | 26.21942 | 37.68658 | 26647 ft | 355 kts | 228° |
| 2026-05-04 07:03 | 26.20180 | 37.66783 | 26208 ft | 352 kts | 228° |
| 2026-05-04 07:03 | 26.18415 | 37.64901 | 25778 ft | 349 kts | 228° |
| 2026-05-04 07:04 | 26.16668 | 37.63036 | 25354 ft | 347 kts | 228° |
| 2026-05-04 07:04 | 26.14938 | 37.61187 | 24921 ft | 344 kts | 228° |
| 2026-05-04 07:04 | 26.13215 | 37.59348 | 24481 ft | 343 kts | 228° |
| 2026-05-04 07:04 | 26.11486 | 37.57509 | 23944 ft | 345 kts | 228° |
| 2026-05-04 07:05 | 26.09749 | 37.55663 | 23354 ft | 347 kts | 228° |
| 2026-05-04 07:05 | 26.07997 | 37.53800 | 22699 ft | 350 kts | 227° |
| 2026-05-04 07:05 | 26.06230 | 37.51921 | 22044 ft | 352 kts | 227° |
| 2026-05-04 07:05 | 26.04457 | 37.50034 | 21402 ft | 355 kts | 226° |
| 2026-05-04 07:06 | 26.01447 | 37.46838 | 20378 ft | 359 kts | 226° |
| 2026-05-04 07:06 | 25.99050 | 37.44302 | 19587 ft | 360 kts | 226° |
| 2026-05-04 07:06 | 25.97847 | 37.43032 | 19195 ft | 360 kts | 226° |
| 2026-05-04 07:07 | 25.96004 | 37.41086 | 18592 ft | 360 kts | 226° |
| 2026-05-04 07:08 | 25.83345 | 37.27695 | 14264 ft | 358 kts | 225° |
| 2026-05-04 07:09 | 25.81540 | 37.25797 | 13678 ft | 357 kts | 225° |
| 2026-05-04 07:09 | 25.79759 | 37.23904 | 13242 ft | 350 kts | 226° |
| 2026-05-04 07:09 | 25.78085 | 37.22007 | 12914 ft | 339 kts | 228° |
| 2026-05-04 07:09 | 25.76499 | 37.20122 | 12618 ft | 330 kts | 229° |
| 2026-05-04 07:10 | 25.74771 | 37.18512 | 12318 ft | 326 kts | 210° |
| 2026-05-04 07:10 | 25.72588 | 37.17905 | 12024 ft | 329 kts | 184° |
| 2026-05-04 07:12 | 25.58556 | 37.25350 | 9907 ft | 304 kts | 158° |
| 2026-05-04 07:12 | 25.56706 | 37.26409 | 9412 ft | 295 kts | 158° |
| 2026-05-04 07:12 | 25.54910 | 37.27432 | 8922 ft | 287 kts | 158° |
| 2026-05-04 07:12 | 25.53047 | 37.28129 | 8422 ft | 279 kts | 181° |
| 2026-05-04 07:13 | 25.51191 | 37.27756 | 7931 ft | 270 kts | 209° |
| 2026-05-04 07:13 | 25.49795 | 37.26462 | 7465 ft | 267 kts | 236° |
| 2026-05-04 07:13 | 25.48819 | 37.24732 | 6993 ft | 261 kts | 239° |
| 2026-05-04 07:14 | 25.48284 | 37.18066 | 5096 ft | 244 kts | 319° |
| 2026-05-04 07:14 | 25.49707 | 37.17057 | 4618 ft | 242 kts | 332° |
| 2026-05-04 07:15 | 25.51283 | 37.16423 | 4131 ft | 238 kts | 334° |
| 2026-05-04 07:15 | 25.52746 | 37.15611 | 3655 ft | 232 kts | 328° |
| 2026-05-04 07:15 | 25.54112 | 37.14701 | 2972 ft | 226 kts | 328° |
| 2026-05-04 07:15 | 25.55447 | 37.13801 | 2268 ft | 222 kts | 330° |
| 2026-05-04 07:16 | 25.56759 | 37.12924 | 1537 ft | 218 kts | 329° |
| 2026-05-04 07:16 | 25.58049 | 37.12065 | 888 ft | 213 kts | 329° |
| 2026-05-04 07:16 | 25.59242 | 37.11270 | 669 ft | 190 kts | 328° |
| 2026-05-04 07:16 | 25.60325 | 37.10548 | 483 ft | 173 kts | 328° |
| 2026-05-04 07:17 | 25.61353 | 37.09860 | 738 ft | 175 kts | 328° |
| 2026-05-04 07:17 | 25.62401 | 37.09158 | 1265 ft | 177 kts | 330° |
| 2026-05-04 07:17 | 25.63658 | 37.08848 | 1601 ft | 202 kts | 10° |
| 2026-05-04 07:17 | 25.64956 | 37.09558 | 2211 ft | 215 kts | 32° |
| 2026-05-04 07:18 | 25.66162 | 37.10593 | 2876 ft | 223 kts | 33° |
| 2026-05-04 07:18 | 25.67383 | 37.11691 | 3579 ft | 229 kts | 36° |
| 2026-05-04 07:18 | 25.68669 | 37.12795 | 3908 ft | 237 kts | 36° |
| 2026-05-04 07:18 | 25.70003 | 37.13875 | 3987 ft | 236 kts | 30° |
| 2026-05-04 07:19 | 25.71336 | 37.14954 | 4007 ft | 239 kts | 42° |
| 2026-05-04 07:19 | 25.72215 | 37.16512 | 4008 ft | 243 kts | 73° |
| 2026-05-04 07:19 | 25.72312 | 37.18381 | 4012 ft | 244 kts | 102° |
| 2026-05-04 07:19 | 25.71642 | 37.20081 | 4007 ft | 244 kts | 130° |
| 2026-05-04 07:20 | 25.70349 | 37.21260 | 4130 ft | 240 kts | 159° |
| 2026-05-04 07:20 | 25.68797 | 37.21954 | 4374 ft | 240 kts | 161° |
| 2026-05-04 07:20 | 25.67246 | 37.22620 | 4625 ft | 237 kts | 163° |
| 2026-05-04 07:20 | 25.65707 | 37.23279 | 4851 ft | 238 kts | 163° |
| 2026-05-04 07:22 | 25.54946 | 37.27887 | 5019 ft | 236 kts | 162° |
| 2026-05-04 07:22 | 25.53394 | 37.28437 | 4972 ft | 232 kts | 176° |
| 2026-05-04 07:23 | 25.51826 | 37.28302 | 4658 ft | 224 kts | 202° |
| 2026-05-04 07:23 | 25.50498 | 37.27456 | 4279 ft | 221 kts | 226° |
| 2026-05-04 07:23 | 25.49586 | 37.26105 | 3927 ft | 219 kts | 243° |
| 2026-05-04 07:23 | 25.48800 | 37.24644 | 3547 ft | 222 kts | 242° |
| 2026-05-04 07:24 | 25.48016 | 37.23212 | 3420 ft | 212 kts | 244° |
| 2026-05-04 07:24 | 25.47272 | 37.21851 | 3309 ft | 201 kts | 246° |
| 2026-05-04 07:24 | 25.46956 | 37.20402 | 3236 ft | 195 kts | 281° |
| 2026-05-04 07:24 | 25.47545 | 37.19099 | 3121 ft | 191 kts | 320° |
| 2026-05-04 07:25 | 25.48661 | 37.18302 | 2932 ft | 191 kts | 329° |
| 2026-05-04 07:26 | 25.55868 | 37.13515 | 1394 ft | 139 kts | 329° |
| 2026-05-04 07:27 | 25.56684 | 37.12972 | 1212 ft | 136 kts | 329° |
| 2026-05-04 07:27 | 25.57487 | 37.12438 | 1038 ft | 135 kts | 329° |
| 2026-05-04 07:27 | 25.58284 | 37.11906 | 888 ft | 133 kts | 328° |
| 2026-05-04 07:27 | 25.59076 | 37.11378 | 731 ft | 131 kts | 328° |
| 2026-05-04 07:28 | 25.59871 | 37.10849 | 546 ft | 136 kts | 329° |
| 2026-05-04 07:28 | 25.60668 | 37.10321 | 373 ft | 133 kts | 328° |
| 2026-05-04 07:28 | 25.61467 | 37.09788 | 168 ft | 133 kts | 328° |
| 2026-05-04 07:28 | 25.62208 | 37.09293 | 145 ft | 109 kts | 328° |
| 2026-05-04 07:29 | 25.62728 | 37.08944 | 140 ft | 63 kts | 329° |
| 2026-05-04 07:29 | 25.62971 | 37.08783 | 141 ft | 29 kts | 329° |
| 2026-05-04 07:29 | 25.63128 | 37.08677 | 142 ft | 24 kts | 329° |
| 2026-05-04 07:29 | 25.63270 | 37.08582 | 140 ft | 24 kts | 329° |
| 2026-05-04 07:30 | 25.63418 | 37.08484 | 139 ft | 26 kts | 328° |
| 2026-05-04 07:30 | 25.63526 | 37.08401 | 138 ft | 12 kts | 304° |
| 2026-05-04 07:30 | 25.63508 | 37.08307 | 139 ft | 14 kts | 238° |
| 2026-05-04 07:30 | 25.63438 | 37.08262 | 140 ft | 13 kts | 161° |
| 2026-05-04 07:31 | 25.63360 | 37.08313 | 140 ft | 13 kts | 149° |
| 2026-05-04 07:31 | 25.63287 | 37.08361 | 140 ft | 12 kts | 149° |
| 2026-05-04 07:33 | 25.62880 | 37.08411 | 140 ft | 8 kts | 325° |
| 2026-05-04 07:33 | 25.62934 | 37.08374 | 140 ft | 10 kts | 329° |
| 2026-05-04 07:33 | 25.62998 | 37.08333 | 140 ft | 11 kts | 330° |
| 2026-05-04 07:33 | 25.63019 | 37.08315 | 140 ft | 2 kts | 304° |
| 2026-05-04 07:34 | 25.63014 | 37.08294 | 140 ft | 5 kts | 241° |
| 2026-05-04 07:34 | 25.62992 | 37.08254 | 140 ft | 6 kts | 238° |
| 2026-05-04 07:34 | 25.62991 | 37.08252 | 140 ft | 0 kts | 238° |